Britt, Minnesota
Current Conditions -  °F | °C
As of 5:35 PM on Wednesday 22 Oct 2014 (Local Time) from KCQM Reporting Station
Clear Clear  
Wind Chill: 55°   Ceiling: Unl
Heat Index: 55°   Visibility: 10mi
Dew Point: 39°   Wind: 9mph
Humidity: 54%   Direction: 160°SSE
Pressure: 29.99"   Gusts: 20mph
Location:  47.64°N, 92.53°W
Report Text: KCQM 222235Z AUTO 16008G17KT 121V181 10SM CLR 13/04 A2999 RMK AO2
Loading
Personal Weather Stations






























Interactive Weather Map
Tropical Storm Tracking
New forecast layout! Learn more

10-Day Weather Forecast

Advertisements
Track Severe Weather on mobile